Time;durP1;ratioP1;P1;durP2;ratioP2;P2;SDS_P1;SDS_P2;PMS_P1;PMS_P2;Temp;Humidity;BMP_temperature;BMP_pressure;BME280_temperature;BME280_humidity;BME280_pressure;Samples;Min_cycle;Max_cycle;Signal;HPM_P1;HPM_P2
2022/11/15 00:01:45;;;;;;;36.80;20.48;;;8.20;99.90;;;;;;5005350;28;20512;-79
2022/11/15 00:04:11;;;;;;;38.22;20.60;;;8.20;99.90;;;;;;5038498;28;20048;-79
2022/11/15 00:06:37;;;;;;;42.88;21.52;;;8.20;99.90;;;;;;5038174;28;20119;-80
2022/11/15 00:09:03;;;;;;;36.90;19.65;;;8.20;99.90;;;;;;5021297;28;20057;-79
2022/11/15 00:11:29;;;;;;;38.88;20.52;;;8.20;99.90;;;;;;5021846;28;20045;-79
2022/11/15 00:13:56;;;;;;;39.10;20.23;;;8.20;99.90;;;;;;5038133;28;20048;-79
2022/11/15 00:16:22;;;;;;;34.47;19.02;;;8.20;99.90;;;;;;5005469;28;20055;-78
2022/11/15 00:18:48;;;;;;;34.97;19.55;;;8.60;99.90;;;;;;5037769;28;20068;-79
2022/11/15 00:21:14;;;;;;;39.53;20.30;;;8.10;99.90;;;;;;5021826;28;20088;-79
2022/11/15 00:23:40;;;;;;;34.42;19.25;;;8.00;99.90;;;;;;5037876;28;20163;-80
2022/11/15 00:26:07;;;;;;;38.42;19.70;;;8.30;99.90;;;;;;5004991;28;20095;-79
2022/11/15 00:28:32;;;;;;;36.88;20.42;;;7.80;99.90;;;;;;5037989;28;20051;-79
2022/11/15 00:31:04;;;;;;;37.67;19.95;;;8.50;99.90;;;;;;5037805;28;20132;-78
2022/11/15 00:33:30;;;;;;;40.13;20.33;;;7.70;99.90;;;;;;5037758;28;20056;-79
2022/11/15 00:36:01;;;;;;;37.63;19.55;;;7.60;99.90;;;;;;5021186;28;20053;-79
2022/11/15 00:38:31;;;;;;;37.33;18.98;;;7.50;99.90;;;;;;5021266;28;20386;-80
2022/11/15 00:40:57;;;;;;;36.88;19.58;;;7.50;99.90;;;;;;5021279;28;20102;-80
2022/11/15 00:43:22;;;;;;;35.15;18.95;;;7.50;99.90;;;;;;4988948;28;20052;-80
2022/11/15 00:45:48;;;;;;;36.90;19.90;;;7.40;99.90;;;;;;5004827;28;20469;-79
2022/11/15 00:48:14;;;;;;;35.53;19.58;;;7.50;99.90;;;;;;5021445;28;20045;-79
2022/11/15 00:50:39;;;;;;;36.40;19.35;;;7.30;99.90;;;;;;5020598;28;20536;-80
2022/11/15 00:53:05;;;;;;;36.75;18.55;;;7.50;99.90;;;;;;5004614;28;20059;-79
2022/11/15 00:55:31;;;;;;;40.42;19.38;;;7.30;99.90;;;;;;5004937;28;20053;-79
2022/11/15 00:57:56;;;;;;;36.58;18.67;;;7.40;99.90;;;;;;5004412;28;20048;-80
2022/11/15 01:00:22;;;;;;;34.55;17.75;;;7.40;99.90;;;;;;5020808;28;20390;-79
2022/11/15 01:02:48;;;;;;;35.33;18.95;;;7.30;99.90;;;;;;5020920;28;20142;-80
2022/11/15 01:05:13;;;;;;;34.50;17.80;;;7.10;99.90;;;;;;5020643;28;20048;-79
2022/11/15 01:07:39;;;;;;;33.33;17.77;;;7.10;99.90;;;;;;4987706;28;20056;-79
2022/11/15 01:10:06;;;;;;;31.08;17.65;;;7.10;99.90;;;;;;5020608;28;20133;-79
2022/11/15 01:12:32;;;;;;;32.25;17.75;;;7.10;99.90;;;;;;5020804;28;20137;-80
2022/11/15 01:14:57;;;;;;;33.35;18.38;;;8.00;99.90;;;;;;5037170;28;20080;-79
2022/11/15 01:17:23;;;;;;;37.53;18.27;;;7.10;99.90;;;;;;5020263;28;20041;-80
2022/11/15 01:19:49;;;;;;;36.42;17.90;;;7.80;99.90;;;;;;4988095;28;20055;-80
2022/11/15 01:22:15;;;;;;;34.25;18.13;;;7.10;99.90;;;;;;5004119;28;20049;-78
2022/11/15 01:24:40;;;;;;;35.47;18.83;;;8.00;99.90;;;;;;5037052;28;20098;-80
2022/11/15 01:27:06;;;;;;;33.38;17.50;;;7.30;99.90;;;;;;5020340;28;20049;-80
2022/11/15 01:29:32;;;;;;;36.03;19.58;;;7.40;99.90;;;;;;5020553;28;20409;-79
2022/11/15 01:31:58;;;;;;;37.50;20.05;;;7.40;99.90;;;;;;5020110;28;20473;-78
2022/11/15 01:34:23;;;;;;;39.90;21.88;;;7.50;99.90;;;;;;5004119;28;20056;-80
2022/11/15 01:36:49;;;;;;;38.63;20.70;;;7.60;99.90;;;;;;5020138;28;20049;-76
2022/11/15 01:39:15;;;;;;;41.38;21.92;;;7.70;99.90;;;;;;5003984;28;20049;-78
2022/11/15 01:41:41;;;;;;;37.03;20.77;;;7.70;99.90;;;;;;5020146;28;20477;-80
2022/11/15 01:44:31;;;;;;;39.45;21.90;;;7.70;99.90;;;;;;5019772;28;20045;-79
2022/11/15 01:46:59;;;;;;;36.20;20.98;;;7.80;99.90;;;;;;5036444;28;20053;-80
2022/11/15 01:49:27;;;;;;;40.22;21.10;;;7.90;99.90;;;;;;5020106;28;20095;-78
2022/11/15 01:51:53;;;;;;;39.65;21.30;;;7.90;99.90;;;;;;5036440;28;20140;-79
2022/11/15 01:54:22;;;;;;;41.72;20.83;;;7.90;99.90;;;;;;5019770;28;20366;-79
2022/11/15 01:56:53;;;;;;;37.75;20.13;;;8.10;99.90;;;;;;5019859;28;20072;-80
2022/11/15 01:59:19;;;;;;;41.15;21.50;;;8.40;99.90;;;;;;5036111;28;20090;-80
2022/11/15 02:01:45;;;;;;;39.20;20.40;;;8.00;99.90;;;;;;5019251;28;20044;-79
2022/11/15 02:04:15;;;;;;;38.55;20.50;;;8.00;99.90;;;;;;5019337;28;20067;-79
2022/11/15 02:06:43;;;;;;;36.28;19.83;;;8.40;99.90;;;;;;5036328;28;20050;-80
2022/11/15 02:09:09;;;;;;;36.42;19.17;;;8.10;99.90;;;;;;5002354;28;20064;-79
2022/11/15 02:11:35;;;;;;;38.42;20.35;;;8.10;99.90;;;;;;5036157;28;20053;-79
2022/11/15 02:14:03;;;;;;;39.92;20.40;;;8.10;99.90;;;;;;5019292;28;20048;-79
2022/11/15 02:16:48;;;;;;;38.72;20.77;;;8.10;99.90;;;;;;5019539;28;20500;-79
2022/11/15 02:19:25;;;;;;;36.45;19.85;;;8.10;99.90;;;;;;5035864;28;20613;-79
2022/11/15 02:22:29;;;;;;;38.22;18.90;;;8.10;99.90;;;;;;5019560;28;20508;-78
2022/11/15 02:25:21;;;;;;;40.05;20.05;;;8.20;99.90;;;;;;5035819;28;20048;-84
2022/11/15 02:28:17;;;;;;;37.97;19.38;;;8.20;99.90;;;;;;5035897;28;20047;-79
2022/11/15 02:31:24;;;;;;;43.63;20.08;;;8.20;99.90;;;;;;4978933;28;20122;-79
2022/11/15 02:33:56;;;;;;;38.28;19.63;;;8.20;99.90;;;;;;4971942;28;20060;-79
2022/11/15 02:36:29;;;;;;;;;;;8.20;99.90;;;;;;5036251;28;20044;-81
2022/11/15 02:39:26;;;;;;;38.58;18.25;;;8.20;99.90;;;;;;5019026;28;20015;-79
2022/11/15 02:41:57;;;;;;;38.35;18.77;;;8.20;99.90;;;;;;5018991;28;20484;-80
2022/11/15 02:44:31;;;;;;;40.15;18.70;;;8.30;99.90;;;;;;5019153;28;20059;-79
2022/11/15 02:47:13;;;;;;;37.33;18.77;;;8.30;99.90;;;;;;5035676;28;20402;-78
2022/11/15 02:49:52;;;;;;;35.55;18.45;;;8.30;99.90;;;;;;5019057;28;20448;-79
2022/11/15 02:52:20;;;;;;;35.72;17.80;;;8.30;99.90;;;;;;5035307;28;20107;-79
2022/11/15 02:54:57;;;;;;;36.17;17.92;;;8.30;99.90;;;;;;5018967;28;20056;-80
2022/11/15 02:57:39;;;;;;;33.33;17.38;;;8.30;99.90;;;;;;5034945;28;20461;-78
2022/11/15 03:00:09;;;;;;;;;;;8.40;99.90;;;;;;5019308;28;20056;-80
2022/11/15 03:02:56;;;;;;;37.95;17.10;;;8.40;99.90;;;;;;5019082;28;19971;-79
2022/11/15 03:05:37;;;;;;;36.22;17.65;;;8.40;99.90;;;;;;5035201;28;20055;-79
2022/11/15 03:08:24;;;;;;;37.03;18.42;;;8.40;99.90;;;;;;5018488;28;20141;-80
2022/11/15 03:11:09;;;;;;;36.80;17.88;;;8.40;99.90;;;;;;5035253;28;20483;-80
2022/11/15 03:13:56;;;;;;;37.13;17.73;;;8.40;99.90;;;;;;5019739;28;20052;-80
2022/11/15 03:16:32;;;;;;;35.78;17.42;;;8.40;99.90;;;;;;5022754;28;20105;-79
2022/11/15 03:19:25;;;;;;;35.85;18.15;;;8.40;99.90;;;;;;5022696;28;20055;-79
2022/11/15 03:21:52;;;;;;;35.45;18.20;;;8.50;99.90;;;;;;5022995;28;20053;-80
2022/11/15 03:24:20;;;;;;;38.65;18.77;;;8.50;99.90;;;;;;5006358;28;20044;-80
2022/11/15 03:26:48;;;;;;;35.17;18.10;;;8.40;99.90;;;;;;5022736;28;20049;-80
2022/11/15 03:29:25;;;;;;;36.70;18.05;;;8.70;99.90;;;;;;5039003;28;20045;-80
2022/11/15 03:31:57;;;;;;;35.33;17.42;;;8.50;99.90;;;;;;5022841;28;20460;-79
2022/11/15 03:34:31;;;;;;;;;;;8.50;99.90;;;;;;5039546;28;20132;-80
2022/11/15 03:36:57;;;;;;;38.00;18.75;;;8.50;99.90;;;;;;5038919;28;19921;-80
2022/11/15 03:39:24;;;;;;;35.03;16.80;;;8.50;99.90;;;;;;5005657;28;20045;-79
2022/11/15 03:42:22;;;;;;;36.95;17.10;;;8.50;99.90;;;;;;5021985;28;20127;-79
2022/11/15 03:45:17;;;;;;;39.35;18.52;;;8.50;99.90;;;;;;4952414;28;20067;-79
2022/11/15 03:47:59;;;;;;;45.92;20.75;;;8.70;99.90;;;;;;5037406;28;20409;-79
2022/11/15 03:50:26;;;;;;;44.88;18.95;;;8.50;99.90;;;;;;5022002;28;20060;-80
2022/11/15 03:52:54;;;;;;;46.33;19.75;;;8.50;99.90;;;;;;5022117;28;20149;-80
2022/11/15 03:55:21;;;;;;;50.75;21.50;;;8.50;99.90;;;;;;5037854;28;20161;-79
2022/11/15 03:57:52;;;;;;;54.47;20.70;;;8.50;99.90;;;;;;5005754;28;20135;-80
2022/11/15 04:00:18;;;;;;;47.13;19.15;;;8.50;99.90;;;;;;5022025;28;20202;-80
2022/11/15 04:02:44;;;;;;;50.33;20.15;;;8.50;99.90;;;;;;5022153;28;20103;-79
2022/11/15 04:05:10;;;;;;;49.15;21.05;;;9.30;99.90;;;;;;5021964;28;20478;-84
2022/11/15 04:07:35;;;;;;;56.67;21.30;;;8.50;99.90;;;;;;5024202;28;20052;-80
2022/11/15 04:10:07;;;;;;;49.17;20.65;;;8.50;99.90;;;;;;5041875;28;20481;-79
2022/11/15 04:12:35;;;;;;;53.58;20.48;;;8.50;99.90;;;;;;5042568;28;20436;-79
2022/11/15 04:15:12;;;;;;;54.65;20.83;;;9.10;99.90;;;;;;5058381;28;20131;-79
2022/11/15 04:17:44;;;;;;;50.78;20.15;;;8.60;99.90;;;;;;5041417;28;20503;-78
2022/11/15 04:26:00;;;;;;;55.55;20.42;;;8.70;99.90;;;;;;4688033;28;10000130;-80
2022/11/15 04:28:26;;;;;;;60.38;22.38;;;8.70;99.90;;;;;;5060337;28;20052;-80
2022/11/15 04:30:53;;;;;;;55.75;21.25;;;8.60;99.90;;;;;;5035499;28;20402;-81
2022/11/15 04:33:18;;;;;;;54.75;22.08;;;8.70;99.90;;;;;;5019100;28;20140;-80
2022/11/15 04:37:11;;;;;;;56.45;21.33;;;8.60;99.90;;;;;;5035374;28;20198;-81
2022/11/15 04:38:30;;;;;;;49.80;21.00;;;8.70;99.90;;;;;;5007853;28;20045;-80
2022/11/15 04:40:55;;;;;;;58.15;22.88;;;8.70;99.90;;;;;;5035658;28;20151;-80
2022/11/15 04:43:21;;;;;;;58.03;22.55;;;8.90;99.90;;;;;;5018961;28;20041;-80
2022/11/15 04:45:47;;;;;;;60.50;23.48;;;8.70;99.90;;;;;;5002779;28;20041;-81
2022/11/15 04:48:12;;;;;;;54.58;22.38;;;8.70;99.90;;;;;;5034829;28;20041;-80
2022/11/15 04:50:38;;;;;;;53.13;22.83;;;8.70;99.90;;;;;;5051903;28;20127;-79
2022/11/15 04:53:04;;;;;;;60.22;24.00;;;8.70;99.90;;;;;;5035485;28;20475;-79
2022/11/15 04:55:29;;;;;;;61.25;23.45;;;8.70;99.90;;;;;;5051639;28;20135;-82
2022/11/15 04:58:00;;;;;;;65.72;24.77;;;8.70;99.90;;;;;;5029008;28;20060;-80
2022/11/15 05:00:27;;;;;;;65.22;24.60;;;8.70;99.90;;;;;;5062750;28;20061;-81
2022/11/15 05:05:37;;;;;;;71.13;26.45;;;8.80;99.90;;;;;;5049106;28;20053;-80
2022/11/15 05:08:04;;;;;;;74.60;26.42;;;8.80;99.90;;;;;;5051443;28;20079;-79
2022/11/15 05:10:30;;;;;;;76.40;25.75;;;8.90;99.90;;;;;;5034622;28;20056;-80
2022/11/15 05:12:55;;;;;;;70.43;25.13;;;8.80;99.90;;;;;;5034625;28;20048;-77
2022/11/15 05:15:21;;;;;;;68.32;25.20;;;8.90;99.90;;;;;;5034463;28;20049;-79
2022/11/15 05:17:47;;;;;;;77.95;26.27;;;8.90;99.90;;;;;;5034819;28;20052;-79
2022/11/15 05:20:13;;;;;;;78.38;26.40;;;8.90;99.90;;;;;;5051165;28;20049;-79
2022/11/15 05:22:38;;;;;;;73.68;26.83;;;9.00;99.90;;;;;;5017751;28;20045;-79
2022/11/15 05:25:05;;;;;;;76.45;27.05;;;8.90;99.90;;;;;;5033552;28;20494;-79
2022/11/15 05:27:32;;;;;;;85.90;28.77;;;9.00;99.90;;;;;;5018118;28;20493;-79
2022/11/15 05:29:57;;;;;;;82.60;28.45;;;9.10;99.90;;;;;;5007960;28;20175;-82
2022/11/15 05:32:24;;;;;;;76.78;27.60;;;9.30;99.90;;;;;;5018151;28;20084;-79
2022/11/15 05:34:49;;;;;;;80.53;28.33;;;9.10;99.90;;;;;;5051242;28;20491;-82
2022/11/15 05:37:16;;;;;;;85.57;29.27;;;9.10;99.90;;;;;;5033950;28;20087;-82
2022/11/15 05:39:42;;;;;;;83.80;29.20;;;9.20;99.90;;;;;;5050898;28;20056;-81
2022/11/15 05:42:15;;;;;;;86.78;29.55;;;9.20;99.90;;;;;;5034497;28;20106;-78
2022/11/15 05:44:46;;;;;;;89.95;31.27;;;9.30;99.90;;;;;;5050853;28;20045;-79
2022/11/15 05:47:17;;;;;;;97.15;31.65;;;9.30;99.90;;;;;;5034253;28;20045;-81
2022/11/15 05:49:44;;;;;;;93.38;31.40;;;9.60;99.90;;;;;;5033789;28;20049;-79
2022/11/15 05:52:13;;;;;;;95.05;31.00;;;9.40;99.90;;;;;;5034294;28;20075;-81
2022/11/15 05:54:39;;;;;;;90.85;30.73;;;9.40;99.90;;;;;;5034068;28;20040;-78
2022/11/15 05:57:05;;;;;;;92.00;31.33;;;9.50;99.90;;;;;;5051772;28;20097;-79
2022/11/15 05:59:32;;;;;;;95.63;31.60;;;9.50;99.90;;;;;;5019454;28;20102;-79
2022/11/15 06:01:58;;;;;;;87.43;31.48;;;9.60;99.90;;;;;;5035797;28;20511;-80
2022/11/15 06:04:24;;;;;;;88.10;31.17;;;9.60;99.90;;;;;;5052221;28;20131;-78
2022/11/15 06:06:50;;;;;;;79.72;30.45;;;9.70;99.90;;;;;;5036190;28;20091;-80
2022/11/15 06:09:15;;;;;;;89.30;30.95;;;9.70;99.90;;;;;;5003006;28;20064;-79
2022/11/15 06:11:41;;;;;;;91.93;31.73;;;9.70;99.90;;;;;;5035993;28;20037;-79
2022/11/15 06:14:07;;;;;;;90.80;31.48;;;9.80;99.90;;;;;;5036042;28;20052;-79
2022/11/15 06:16:32;;;;;;;85.35;31.80;;;9.80;99.90;;;;;;5019208;28;20405;-77
2022/11/15 06:18:58;;;;;;;83.10;30.02;;;9.80;99.90;;;;;;5019347;28;20041;-79
2022/11/15 06:21:24;;;;;;;87.78;30.92;;;9.90;99.90;;;;;;5036148;28;20106;-79
2022/11/15 06:23:50;;;;;;;81.47;29.08;;;9.90;99.90;;;;;;5003138;28;20401;-78
2022/11/15 06:26:15;;;;;;;76.25;30.30;;;10.00;99.90;;;;;;5035978;28;20220;-78
2022/11/15 06:28:41;;;;;;;75.88;29.48;;;10.00;99.90;;;;;;5035441;28;20040;-79
2022/11/15 06:31:10;;;;;;;70.70;29.10;;;10.00;99.90;;;;;;5052411;28;20079;-79
2022/11/15 06:33:37;;;;;;;75.20;28.98;;;10.00;99.90;;;;;;5035336;28;20464;-79
2022/11/15 06:36:04;;;;;;;69.40;28.27;;;10.10;99.90;;;;;;5035861;28;20132;-80
2022/11/15 06:38:30;;;;;;;71.05;28.48;;;10.20;99.90;;;;;;5035514;28;20048;-78
2022/11/15 06:41:05;;;;;;;70.13;28.38;;;10.20;99.90;;;;;;5052103;28;20048;-79
2022/11/15 06:43:31;;;;;;;59.78;25.33;;;10.20;99.90;;;;;;5035623;28;20131;-78
2022/11/15 06:46:02;;;;;;;62.25;25.90;;;10.30;99.90;;;;;;5035471;28;20049;-79
2022/11/15 06:48:29;;;;;;;60.40;27.13;;;10.30;99.90;;;;;;5034724;28;20076;-78
2022/11/15 06:50:56;;;;;;;59.60;25.13;;;10.40;99.90;;;;;;5052074;28;20045;-79
2022/11/15 06:53:23;;;;;;;56.20;26.05;;;10.40;99.90;;;;;;5035205;28;20056;-79
2022/11/15 06:55:49;;;;;;;56.13;23.58;;;10.40;99.90;;;;;;5051838;28;20056;-79
2022/11/15 06:58:15;;;;;;;56.50;25.90;;;10.40;99.90;;;;;;5035200;28;20406;-79
2022/11/15 07:00:41;;;;;;;55.30;25.35;;;10.40;99.90;;;;;;5035311;28;20052;-79
2022/11/15 07:03:07;;;;;;;57.03;25.27;;;10.50;99.90;;;;;;5035275;28;20371;-79
2022/11/15 07:05:33;;;;;;;53.45;25.10;;;10.50;99.90;;;;;;5035334;28;20049;-78
2022/11/15 07:07:59;;;;;;;47.72;23.92;;;10.50;99.90;;;;;;5036148;28;20057;-79
2022/11/15 07:10:26;;;;;;;49.15;23.80;;;10.50;99.90;;;;;;5037489;28;20064;-79
2022/11/15 07:12:53;;;;;;;50.95;23.52;;;10.60;99.90;;;;;;5055027;28;20040;-80
2022/11/15 07:15:21;;;;;;;48.60;22.88;;;10.60;99.90;;;;;;5038697;28;20174;-79
2022/11/15 07:17:46;;;;;;;48.80;23.13;;;10.60;99.90;;;;;;5038313;28;20048;-79
2022/11/15 07:20:13;;;;;;;46.63;23.00;;;10.60;99.90;;;;;;5055195;28;20055;-79
2022/11/15 07:22:40;;;;;;;45.65;22.35;;;10.70;99.90;;;;;;5038547;28;20040;-79
2022/11/15 07:25:06;;;;;;;47.92;23.45;;;10.70;99.90;;;;;;5055128;28;20585;-79
2022/11/15 07:27:32;;;;;;;45.20;22.52;;;10.70;99.90;;;;;;5055186;28;20143;-79
2022/11/15 07:29:57;;;;;;;44.53;21.65;;;10.70;99.90;;;;;;5054876;28;20135;-79
2022/11/15 07:32:23;;;;;;;46.88;22.77;;;10.80;99.90;;;;;;5055011;28;20497;-79
2022/11/15 07:34:49;;;;;;;44.67;22.15;;;10.80;99.90;;;;;;5038405;28;20053;-79
2022/11/15 07:37:14;;;;;;;46.05;22.20;;;10.80;99.90;;;;;;5021835;28;20051;-79
2022/11/15 07:39:40;;;;;;;44.72;21.25;;;10.80;99.90;;;;;;5038391;28;20049;-80
2022/11/15 07:44:50;;;;;;;42.85;22.00;;;10.90;99.90;;;;;;5026825;28;20151;-79
2022/11/15 07:47:15;;;;;;;41.47;21.27;;;10.90;99.90;;;;;;5021935;28;20269;-79
2022/11/15 07:49:41;;;;;;;44.42;21.65;;;10.90;99.90;;;;;;5038296;28;20051;-78
2022/11/15 07:52:07;;;;;;;40.95;21.98;;;11.00;99.90;;;;;;5037867;28;20080;-81
2022/11/15 07:54:33;;;;;;;43.85;20.75;;;11.00;99.90;;;;;;5021832;28;20052;-78
2022/11/15 07:56:58;;;;;;;41.30;21.60;;;11.00;99.90;;;;;;5005480;28;20048;-77
2022/11/15 07:59:24;;;;;;;41.25;20.75;;;11.10;99.90;;;;;;5038707;28;20056;-78
2022/11/15 08:01:50;;;;;;;38.33;20.42;;;11.10;99.90;;;;;;5058441;28;20040;-78
2022/11/15 08:04:15;;;;;;;40.60;21.77;;;11.20;99.90;;;;;;5058617;28;20048;-78
2022/11/15 08:06:42;;;;;;;39.55;20.70;;;11.20;99.90;;;;;;5058527;28;20469;-79
2022/11/15 08:09:08;;;;;;;40.97;20.85;;;11.20;99.90;;;;;;5041363;28;20060;-79
2022/11/15 08:11:33;;;;;;;36.83;20.48;;;11.30;99.90;;;;;;5041943;28;20101;-79
2022/11/15 08:13:59;;;;;;;39.70;21.02;;;11.30;99.90;;;;;;5041591;28;20051;-79
2022/11/15 08:16:25;;;;;;;40.13;20.23;;;11.40;99.90;;;;;;5041756;28;20045;-78
2022/11/15 08:18:50;;;;;;;38.97;20.20;;;11.40;99.90;;;;;;5024895;28;20106;-78
2022/11/15 08:21:19;;;;;;;40.22;20.25;;;11.50;99.90;;;;;;5041754;28;20044;-79
2022/11/15 08:23:45;;;;;;;40.83;20.38;;;11.50;99.90;;;;;;5041386;28;20511;-78
2022/11/15 08:26:11;;;;;;;35.15;19.35;;;11.60;99.90;;;;;;5041279;28;20048;-78
2022/11/15 08:28:37;;;;;;;37.17;19.38;;;11.60;99.90;;;;;;5041158;28;20059;-79
2022/11/15 08:31:03;;;;;;;34.85;18.60;;;11.60;99.90;;;;;;5057797;28;20040;-78
2022/11/15 08:33:30;;;;;;;41.38;20.27;;;11.60;99.90;;;;;;5041310;28;20044;-78
2022/11/15 08:36:00;;;;;;;34.42;19.50;;;11.70;99.90;;;;;;5024684;28;20052;-78
2022/11/15 08:38:28;;;;;;;38.50;19.58;;;11.80;99.90;;;;;;5041037;28;20131;-79
2022/11/15 08:41:01;;;;;;;42.38;20.48;;;11.80;99.90;;;;;;5025004;28;20135;-79
2022/11/15 08:43:26;;;;;;;34.90;19.17;;;11.90;99.90;;;;;;5057879;28;20055;-78
2022/11/15 08:45:56;;;;;;;32.05;18.98;;;12.00;99.90;;;;;;5057554;28;20037;-81
2022/11/15 08:48:22;;;;;;;33.83;19.27;;;11.90;99.90;;;;;;5057681;28;20084;-78
2022/11/15 08:50:48;;;;;;;33.92;19.30;;;11.90;99.90;;;;;;5057735;28;20056;-79
2022/11/15 08:53:14;;;;;;;35.95;19.35;;;12.00;99.90;;;;;;5040525;28;20052;-78
2022/11/15 08:55:40;;;;;;;33.70;18.60;;;12.00;99.90;;;;;;5057611;28;20036;-78
2022/11/15 08:58:07;;;;;;;39.60;18.70;;;12.10;99.90;;;;;;5057212;28;20139;-77
2022/11/15 09:00:33;;;;;;;37.80;19.40;;;12.20;99.90;;;;;;5057614;28;20040;-78
2022/11/15 09:02:59;;;;;;;32.38;19.77;;;12.30;99.90;;;;;;5040450;28;20516;-80
2022/11/15 09:05:25;;;;;;;33.75;19.13;;;12.30;99.90;;;;;;5024339;28;20051;-79
2022/11/15 09:07:54;;;;;;;31.02;18.40;;;12.40;99.90;;;;;;5056954;28;20048;-80
2022/11/15 09:10:21;;;;;;;31.50;18.95;;;12.40;99.90;;;;;;5039996;28;20099;-77
2022/11/15 09:12:48;;;;;;;32.53;19.35;;;12.50;99.90;;;;;;5056322;28;20083;-79
2022/11/15 09:15:15;;;;;;;35.08;19.52;;;12.50;99.90;;;;;;5037813;28;20088;-78
2022/11/15 09:17:41;;;;;;;35.55;19.52;;;12.50;99.90;;;;;;5038142;28;20051;-79
2022/11/15 09:20:08;;;;;;;37.15;20.92;;;12.50;99.90;;;;;;5054732;28;20083;-79
2022/11/15 09:22:34;;;;;;;35.67;19.90;;;12.50;99.90;;;;;;5038219;28;20052;-79
2022/11/15 09:25:00;;;;;;;33.33;19.70;;;12.40;99.90;;;;;;4687288;28;10001165;-82
2022/11/15 09:27:30;;;;;;;34.60;20.25;;;12.50;99.90;;;;;;5001279;28;20157;-78
2022/11/15 09:29:56;;;;;;;34.78;20.20;;;12.50;99.90;;;;;;5034207;28;20049;-77
2022/11/15 09:32:24;;;;;;;32.22;19.13;;;12.50;99.90;;;;;;5001501;28;20072;-80
2022/11/15 09:34:50;;;;;;;36.78;21.17;;;12.50;99.90;;;;;;5034320;28;20048;-80
2022/11/15 09:37:16;;;;;;;37.88;21.73;;;12.60;99.90;;;;;;5034008;28;20195;-79
2022/11/15 09:39:42;;;;;;;33.42;20.73;;;12.60;99.90;;;;;;5017411;28;20053;-80
2022/11/15 09:42:25;;;;;;;35.95;20.15;;;12.60;99.90;;;;;;5034162;28;20045;-79
2022/11/15 09:45:12;;;;;;;39.92;21.30;;;12.70;99.90;;;;;;5017800;28;20048;-79
2022/11/15 09:48:10;;;;;;;41.92;20.85;;;12.70;99.90;;;;;;5034032;28;20049;-80
2022/11/15 09:50:53;;;;;;;36.42;20.20;;;12.80;99.90;;;;;;4967557;28;20493;-77
2022/11/15 09:53:46;;;;;;;34.25;20.33;;;12.80;99.90;;;;;;5033805;28;20049;-79
2022/11/15 09:56:20;;;;;;;39.58;22.00;;;12.80;99.90;;;;;;5021465;28;20053;-79
2022/11/15 09:58:58;;;;;;;39.22;21.52;;;12.70;99.90;;;;;;5034077;28;20053;-79
2022/11/15 10:01:54;;;;;;;38.13;20.95;;;12.80;99.90;;;;;;5017577;28;20047;-78
2022/11/15 10:04:22;;;;;;;37.03;21.20;;;12.80;99.90;;;;;;4989162;28;20543;-78
2022/11/15 10:07:01;;;;;;;37.72;20.25;;;12.80;99.90;;;;;;5017784;28;20049;-79
2022/11/15 10:09:38;;;;;;;36.08;20.15;;;12.70;99.90;;;;;;5033244;28;20402;-80
2022/11/15 10:12:04;;;;;;;33.67;20.55;;;12.70;99.90;;;;;;5033856;28;20518;-81
2022/11/15 10:14:31;;;;;;;33.38;18.95;;;12.70;99.90;;;;;;5000705;28;20049;-79
2022/11/15 10:17:00;;;;;;;36.42;19.90;;;12.60;99.90;;;;;;5000657;28;20048;-80
2022/11/15 10:19:44;;;;;;;35.47;20.50;;;12.60;99.90;;;;;;5033467;28;20048;-80
2022/11/15 10:22:18;;;;;;;35.67;20.02;;;12.60;99.90;;;;;;5017182;28;20493;-81
2022/11/15 10:24:46;;;;;;;36.55;20.58;;;12.60;99.90;;;;;;5016511;28;20049;-79
2022/11/15 10:27:17;;;;;;;34.53;19.90;;;12.60;99.90;;;;;;5013271;28;20079;-80
2022/11/15 10:29:49;;;;;;;35.10;19.85;;;12.60;99.90;;;;;;5013890;28;20042;-80
2022/11/15 10:32:19;;;;;;;37.45;19.42;;;12.60;99.90;;;;;;4997412;28;20095;-78
2022/11/15 10:34:45;;;;;;;31.15;19.20;;;12.60;99.90;;;;;;5013908;28;20050;-80
2022/11/15 10:37:11;;;;;;;32.60;19.80;;;12.60;99.90;;;;;;4997091;28;20057;-80
2022/11/15 10:39:37;;;;;;;31.00;17.98;;;12.60;99.90;;;;;;4997176;28;20609;-78
2022/11/15 10:42:27;;;;;;;33.08;19.10;;;12.60;99.90;;;;;;5013743;28;20128;-79
2022/11/15 10:44:53;;;;;;;32.10;18.25;;;12.60;99.90;;;;;;5013820;28;20049;-79
2022/11/15 10:47:30;;;;;;;30.92;18.20;;;12.60;99.90;;;;;;4997165;28;20513;-80
2022/11/15 10:50:29;;;;;;;31.55;19.38;;;12.70;99.90;;;;;;5013277;28;20127;-80
2022/11/15 10:52:56;;;;;;;33.75;19.98;;;12.70;99.90;;;;;;4997217;28;20045;-81
2022/11/15 10:55:28;;;;;;;30.67;19.35;;;12.70;99.90;;;;;;4997075;28;20171;-80
2022/11/15 10:58:20;;;;;;;31.52;20.30;;;12.60;99.90;;;;;;4997157;28;20049;-78
2022/11/15 11:00:45;;;;;;;;;;;12.60;99.90;;;;;;5013971;28;20126;-79
2022/11/15 11:03:23;;;;;;;29.90;18.67;;;12.60;99.90;;;;;;5012718;28;20019;-78
2022/11/15 11:06:07;;;;;;;32.92;18.45;;;12.60;99.90;;;;;;4997209;28;20512;-79
2022/11/15 11:08:33;;;;;;;27.38;17.75;;;12.60;99.90;;;;;;4997487;28;20141;-78
2022/11/15 11:11:01;;;;;;;27.25;17.63;;;12.60;99.90;;;;;;5013700;28;20048;-78
2022/11/15 11:13:29;;;;;;;26.83;17.65;;;12.60;99.90;;;;;;5029453;28;20133;-79
2022/11/15 11:16:10;;;;;;;28.05;17.30;;;12.70;99.90;;;;;;5012850;28;20056;-77
2022/11/15 11:18:47;;;;;;;26.70;17.80;;;12.70;99.90;;;;;;5029407;28;20371;-80
2022/11/15 11:21:57;;;;;;;25.48;16.80;;;12.70;99.90;;;;;;5029886;28;20038;-79
2022/11/15 11:24:38;;;;;;;29.85;16.77;;;12.70;99.90;;;;;;5013067;28;20136;-78
2022/11/15 11:27:23;;;;;;;;;;;12.80;99.90;;;;;;4997785;28;20506;-78
2022/11/15 11:30:30;;;;;;;27.92;17.40;;;12.80;99.90;;;;;;4996743;28;20345;-80
2022/11/15 11:33:27;;;;;;;25.70;16.60;;;12.90;99.90;;;;;;4975673;28;20062;-79
2022/11/15 11:36:14;;;;;;;26.63;17.27;;;12.90;99.90;;;;;;5015424;28;20478;-78
2022/11/15 11:38:43;;;;;;;27.77;17.70;;;12.90;99.90;;;;;;5016460;28;20049;-79
2022/11/15 11:41:46;;;;;;;34.58;18.52;;;12.90;99.90;;;;;;5016710;28;20396;-79
2022/11/15 11:44:41;;;;;;;28.17;17.42;;;13.00;99.90;;;;;;5017083;28;20085;-78
2022/11/15 11:47:24;;;;;;;25.95;17.77;;;13.00;99.90;;;;;;5016958;28;20045;-77
2022/11/15 11:50:11;;;;;;;26.02;18.27;;;13.10;99.90;;;;;;4999914;28;20061;-79
2022/11/15 11:53:01;;;;;;;27.40;18.30;;;13.20;99.90;;;;;;5016478;28;20057;-78
2022/11/15 11:55:41;;;;;;;26.83;17.42;;;13.20;99.90;;;;;;5000206;28;20053;-79
2022/11/15 11:58:37;;;;;;;25.23;17.58;;;13.20;99.90;;;;;;5016650;28;20553;-78
2022/11/15 12:01:22;;;;;;;26.48;18.02;;;13.20;99.90;;;;;;5000478;28;20060;-77
2022/11/15 12:04:19;;;;;;;24.33;17.60;;;13.20;99.90;;;;;;5016304;28;20049;-77
2022/11/15 12:07:18;;;;;;;25.02;17.45;;;13.30;99.90;;;;;;5016610;28;20045;-78
2022/11/15 12:10:04;;;;;;;24.13;16.70;;;13.40;99.90;;;;;;4999456;28;20069;-78
2022/11/15 12:12:39;;;;;;;21.70;16.55;;;13.50;99.90;;;;;;5014601;28;20148;-78
2022/11/15 12:15:18;;;;;;;16.65;12.77;;;13.50;99.90;;;;;;4999551;28;20394;-78
2022/11/15 12:17:45;;;;;;;18.85;13.40;;;13.40;99.90;;;;;;4999878;28;20080;-77
2022/11/15 12:20:26;;;;;;;17.92;12.00;;;13.30;99.90;;;;;;5016299;28;20050;-78
2022/11/15 12:22:59;;;;;;;16.75;12.30;;;13.30;99.90;;;;;;5000055;28;20049;-78
2022/11/15 12:25:29;;;;;;;20.20;12.32;;;13.20;99.90;;;;;;5015837;28;20075;-78
2022/11/15 12:28:39;;;;;;;18.85;12.90;;;13.20;99.90;;;;;;4999410;28;20055;-76
2022/11/15 12:31:16;;;;;;;18.83;12.27;;;13.20;99.90;;;;;;5009264;28;20533;-77
2022/11/15 12:33:44;;;;;;;18.23;11.55;;;13.20;99.90;;;;;;4999652;28;20438;-78
2022/11/15 12:36:21;;;;;;;15.48;9.93;;;13.30;99.90;;;;;;4999690;28;20049;-79
2022/11/15 12:38:59;;;;;;;16.17;10.25;;;13.30;99.90;;;;;;5015277;28;20057;-77
2022/11/15 12:41:28;;;;;;;12.70;7.05;;;13.40;99.90;;;;;;4999550;28;20107;-78
2022/11/15 12:43:55;;;;;;;9.30;7.05;;;13.00;99.90;;;;;;4999474;28;20045;-77
2022/11/15 12:46:29;;;;;;;11.48;6.68;;;14.00;99.90;;;;;;4998623;28;20093;-78
2022/11/15 12:49:42;;;;;;;6.93;5.10;;;14.30;99.90;;;;;;4999558;28;20045;-78
2022/11/15 12:52:09;;;;;;;8.27;5.25;;;14.20;99.90;;;;;;5015763;28;20482;-77
2022/11/15 12:54:40;;;;;;;8.02;4.88;;;14.30;99.90;;;;;;4982832;28;20406;-78
2022/11/15 12:57:06;;;;;;;;;;;14.20;99.90;;;;;;4999767;28;20072;-77
2022/11/15 13:00:02;;;;;;;8.52;4.95;;;13.90;99.90;;;;;;5015376;28;20362;-79
2022/11/15 13:02:47;;;;;;;5.78;4.63;;;14.00;99.90;;;;;;4998694;28;20053;-78
2022/11/15 13:05:17;;;;;;;6.25;4.45;;;14.60;99.90;;;;;;4999278;28;20052;-78
2022/11/15 13:07:44;;;;;;;6.00;4.18;;;14.90;99.90;;;;;;5014987;28;20498;-78